Terminal Aerodrome Forecast
Issued by NWS

Home | Current Version | Previous Version | Text Only | Print | Product List | Glossary On
Versions: 1 2 3 4 5 6 7 8 9 10 11 12 13 14 15 16 17
055
FTUS41 KPBZ 270533
TAFHLG
TAF
KHLG 270533Z 2706/2806 20006KT P6SM -SHRA OVC025
     FM270900 21005KT P6SM VCSH OVC015
     FM271400 23005KT P6SM OVC045
     FM280200 18003KT P6SM VCSH BKN090=

USA.gov is the U.S. government's official web portal to all federal, state and local government web resources and services.